Portada
METAR-TAF:

METAR-TAF

Aeropuertos :

Aeropuerto de Murcia-San Javier

Murcia, España

latitud: 37-47N, longitud: 000-48W, altitud: 5 m

Observación

El informe se hizo hace 34 minutos, a las 13:00 UTC
Viento 3 kt del este, variando entre noreste y sur-sureste
Temperatura 15°C
Humedad 51%
Presión 1031 hPa
Visibilidad 10 km o más
sin nubes por debajo de 1500 m y sin presencia de cumulonimbus.

METAR: LELC 031300Z 10003KT 050V150 CAVOK 15/05 Q1031 NOSIG

Hora: 14:34 (13:34 UTC)

Pronóstico

El informe se hizo hace 2 horas y 34 minutos, a las 11:00 UTC
Pronóstico válido del 03 a las 12 UTC al 04 a las 12 UTC
Viento 12 kt del este-noreste
Visibilidad 10 km o más
sin nubes por debajo de 1500 m y sin presencia de cumulonimbus.
Evolucionando progresivamente
del 03 a las 20 UTC al 03 a las 22 UTC
Viento 7 kt del norte-noroeste

TAF: LELC 031100Z 0312/0412 06012KT CAVOK TX17/0313Z TN03/0406Z BECMG 0320/0322 33007KT

Observaciones y pronósticos meteorológicos de más de 4000 aeropuertos (mensajes METAR y TAF).

Los puntos amarillos y rojos representan las estaciones disponibles.

Ponga el ratón en el punto deseado para ver el nombre de la estación.

Haga clic para ver las observaciones y los pronósticos meteorológicos.

Para cambiar el mapa : haga clic en los botones verdes con una cruz de color negro para hacer un zoom, en el botón verde con un guión para alejar o en las flechas verdes para mapas adyacentes.


METAR-TAF: